Time;durP1;ratioP1;P1;durP2;ratioP2;P2;SDS_P1;SDS_P2;PMS_P1;PMS_P2;Temp;Humidity;BMP_temperature;BMP_pressure;BME280_temperature;BME280_humidity;BME280_pressure;Samples;Min_cycle;Max_cycle;Signal;HPM_P1;HPM_P2
2020/12/26 00:02:18;;;;;;;1.90;1.90;;;;;;;1.27;89.67;101475.34;6005679;29;20244;-76
2020/12/26 00:05:22;;;;;;;2.60;1.80;;;;;;;1.14;89.97;101453.28;6005532;29;20215;-76
2020/12/26 00:08:27;;;;;;;1.93;1.93;;;;;;;0.78;89.20;101381.41;6006081;29;20423;-77
2020/12/26 00:11:31;;;;;;;2.83;1.60;;;;;;;1.12;89.79;101482.13;6005285;29;20223;-76
2020/12/26 00:14:34;;;;;;;1.83;1.83;;;;;;;0.92;89.86;101426.69;6003824;29;20297;-77
2020/12/26 00:17:38;;;;;;;1.63;1.63;;;;;;;1.26;89.44;101476.31;6003608;29;20202;-76
2020/12/26 00:20:41;;;;;;;2.23;2.13;;;;;;;1.25;89.64;101482.69;6002549;29;20203;-76
2020/12/26 00:23:45;;;;;;;1.70;1.70;;;;;;;1.30;89.54;101474.22;6004873;29;20199;-77
2020/12/26 00:26:49;;;;;;;1.80;1.80;;;;;;;1.20;89.28;101484.97;6004410;29;20338;-76
2020/12/26 00:29:53;;;;;;;1.90;1.90;;;;;;;1.17;89.56;101484.38;6006477;29;20600;-76
2020/12/26 00:32:56;;;;;;;1.90;1.90;;;;;;;1.11;89.53;101475.03;6009611;29;20222;-78
2020/12/26 00:36:01;;;;;;;2.50;2.30;;;;;;;1.05;89.50;101472.09;6004295;29;20364;-78
2020/12/26 00:39:05;;;;;;;1.90;1.90;;;;;;;1.14;89.10;101474.78;6010080;29;20298;-78
2020/12/26 00:42:11;;;;;;;2.80;2.53;;;;;;;1.09;89.84;101470.81;6010639;29;20209;-78
2020/12/26 00:45:14;;;;;;;2.03;1.93;;;;;;;0.95;89.10;101464.00;5992335;29;20228;-77
2020/12/26 00:48:27;;;;;;;2.13;2.03;;;;;;;0.92;88.98;101469.66;5994036;29;20224;-78
2020/12/26 00:51:32;;;;;;;2.27;2.17;;;;;;;0.83;89.33;101465.13;6003643;29;20676;-78
2020/12/26 00:54:35;;;;;;;3.43;2.20;;;;;;;0.96;89.39;101471.06;6003460;29;20234;-77
2020/12/26 00:57:42;;;;;;;2.00;2.00;;;;;;;1.11;88.54;101466.13;6011375;29;20250;-78
2020/12/26 01:00:46;;;;;;;2.53;2.10;;;;;;;1.06;88.62;101469.25;6009906;29;20298;-76
2020/12/26 01:04:18;;;;;;;1.80;1.80;;;;;;;1.08;88.59;101464.56;5984459;29;20302;-77
2020/12/26 01:07:23;;;;;;;1.90;1.90;;;;;;;1.17;88.25;101447.63;6009424;29;20644;-77
2020/12/26 01:10:27;;;;;;;2.20;2.10;;;;;;;1.12;88.68;101460.63;6007117;29;20202;-76
2020/12/26 01:13:35;;;;;;;2.03;2.00;;;;;;;1.13;87.73;101454.25;5992039;29;20227;-78
2020/12/26 01:16:40;;;;;;;2.10;2.10;;;;;;;0.99;88.62;101446.63;6007037;29;20260;-76
2020/12/26 01:19:45;;;;;;;2.27;2.17;;;;;;;0.92;88.55;101447.31;6012262;29;20213;-78
2020/12/26 01:22:49;;;;;;;1.80;1.80;;;;;;;0.85;88.63;101451.56;6009028;29;20699;-77
2020/12/26 01:25:52;;;;;;;2.30;2.10;;;;;;;0.82;88.42;101452.69;6009538;29;20212;-78
2020/12/26 01:28:57;;;;;;;1.97;1.97;;;;;;;0.93;88.04;101455.22;6019229;29;20370;-76
2020/12/26 01:32:01;;;;;;;2.17;2.17;;;;;;;0.60;88.33;101442.19;6009300;29;20196;-76
2020/12/26 01:35:06;;;;;;;1.90;1.90;;;;;;;0.60;88.12;101463.66;6011884;29;20198;-77
2020/12/26 01:38:17;;;;;;;2.20;2.20;;;;;;;0.55;88.76;101449.78;6006115;29;20248;-77
2020/12/26 01:41:21;;;;;;;1.93;1.93;;;;;;;0.73;88.69;101440.09;6005328;29;20651;-77
2020/12/26 01:44:25;;;;;;;1.63;1.63;;;;;;;0.65;88.93;101445.28;6004469;29;20308;-77
2020/12/26 01:47:28;;;;;;;2.00;2.00;;;;;;;0.53;88.90;101446.41;6004480;29;20239;-77
2020/12/26 01:50:33;;;;;;;2.00;2.00;;;;;;;0.25;90.29;101452.53;6003432;29;20241;-77
2020/12/26 01:53:36;;;;;;;2.00;2.00;;;;;;;0.16;90.26;101447.97;6005703;29;20224;-77
2020/12/26 01:56:41;;;;;;;2.43;2.33;;;;;;;0.37;89.94;101435.34;6009198;29;20321;-78
2020/12/26 01:59:45;;;;;;;2.40;2.20;;;;;;;0.50;89.58;101419.81;6012877;29;20686;-78
2020/12/26 02:02:49;;;;;;;2.03;2.03;;;;;;;0.37;88.90;101456.81;6005510;29;20318;-78
2020/12/26 02:05:54;;;;;;;2.50;2.40;;;;;;;0.34;89.04;101446.34;6027288;29;20205;-77
2020/12/26 02:09:00;;;;;;;2.77;2.57;;;;;;;0.13;89.30;101432.16;6013367;29;20210;-76
2020/12/26 02:12:04;;;;;;;2.53;2.33;;;;;;;0.14;89.51;101445.44;6009987;29;20660;-78
2020/12/26 02:15:13;;;;;;;1.90;1.90;;;;;;;0.07;89.67;101464.88;6008567;29;20221;-75
2020/12/26 02:18:22;;;;;;;2.30;2.20;;;;;;;0.11;89.24;101455.56;6012192;29;20207;-76
2020/12/26 02:21:26;;;;;;;2.50;2.40;;;;;;;0.21;89.78;101445.72;6011994;29;20254;-78
2020/12/26 02:24:30;;;;;;;2.20;2.10;;;;;;;0.31;88.02;101441.28;6006498;29;20233;-77
2020/12/26 02:27:34;;;;;;;2.10;2.00;;;;;;;0.07;89.16;101448.78;6007204;29;20572;-78
2020/12/26 02:30:39;;;;;;;1.97;1.97;;;;;;;-0.07;89.20;101453.53;6002867;29;20352;-77
2020/12/26 02:33:42;;;;;;;2.30;2.20;;;;;;;0.09;89.31;101460.22;6007424;29;20225;-76
2020/12/26 02:36:45;;;;;;;2.57;2.37;;;;;;;-0.02;88.99;101459.34;6006918;29;20224;-77
2020/12/26 02:39:53;;;;;;;2.60;2.50;;;;;;;-0.02;89.45;101467.38;6006437;29;20209;-77
2020/12/26 02:42:56;;;;;;;2.27;2.27;;;;;;;0.11;88.09;101450.22;6007296;29;20558;-76
2020/12/26 02:45:59;;;;;;;2.10;2.10;;;;;;;0.06;88.29;101452.44;6003302;29;20253;-77
2020/12/26 02:49:02;;;;;;;2.43;2.33;;;;;;;0.10;88.50;101432.44;6004046;29;20213;-78
2020/12/26 02:52:06;;;;;;;2.10;2.10;;;;;;;0.14;87.90;101444.56;6004796;29;20234;-77
2020/12/26 02:55:12;;;;;;;2.33;2.23;;;;;;;0.05;88.74;101456.13;5995932;29;20307;-77
2020/12/26 02:58:17;;;;;;;2.40;2.30;;;;;;;0.17;88.22;101465.78;6001813;29;20236;-77
2020/12/26 03:01:21;;;;;;;3.33;2.23;;;;;;;0.11;87.93;101463.63;6006597;29;20208;-77
2020/12/26 03:04:24;;;;;;;2.17;2.10;;;;;;;-0.04;88.36;101458.63;6006835;29;20198;-77
2020/12/26 03:07:27;;;;;;;2.30;2.27;;;;;;;0.07;88.70;101448.78;6006176;29;20653;-77
2020/12/26 03:10:31;;;;;;;2.27;2.17;;;;;;;0.10;88.34;101459.25;6006971;29;20374;-78
2020/12/26 03:13:35;;;;;;;2.40;2.20;;;;;;;-0.05;88.74;101451.56;6025053;29;20229;-77
2020/12/26 03:16:39;;;;;;;1.73;1.70;;;;;;;-0.14;90.06;101457.75;6004284;29;20211;-77
2020/12/26 03:19:42;;;;;;;2.20;2.10;;;;;;;-0.09;89.60;101460.88;5999217;29;20213;-78
2020/12/26 03:22:46;;;;;;;2.23;2.23;;;;;;;-0.13;89.49;101442.50;6005508;29;20202;-76
2020/12/26 03:25:50;;;;;;;2.10;2.00;;;;;;;-0.08;89.34;101459.88;6003439;29;20682;-77
2020/12/26 03:28:53;;;;;;;1.90;1.90;;;;;;;-0.23;90.88;101442.44;6006092;29;20253;-77
2020/12/26 03:31:56;;;;;;;2.33;2.27;;;;;;;-0.21;90.30;101445.84;6004967;29;20259;-77
2020/12/26 03:35:01;;;;;;;2.07;2.07;;;;;;;-0.10;91.06;101447.56;6004469;29;20225;-76
2020/12/26 03:38:06;;;;;;;4.13;2.13;;;;;;;-0.31;91.38;101441.41;6002953;29;20294;-76
2020/12/26 03:41:11;;;;;;;3.33;2.53;;;;;;;-0.36;91.96;101447.16;6003908;29;20204;-75
2020/12/26 03:44:14;;;;;;;2.00;2.00;;;;;;;-0.41;93.56;101438.66;6006118;29;20255;-76
2020/12/26 03:47:18;;;;;;;2.73;2.40;;;;;;;-0.26;92.29;101432.00;6004509;29;20207;-77
2020/12/26 03:50:22;;;;;;;2.10;2.10;;;;;;;0.00;91.40;101427.84;6008342;29;20604;-78
2020/12/26 03:53:26;;;;;;;2.00;2.00;;;;;;;0.12;91.24;101430.44;6010818;29;20317;-78
2020/12/26 03:56:30;;;;;;;1.90;1.90;;;;;;;0.08;91.21;101439.78;6005508;29;20337;-77
2020/12/26 03:59:33;;;;;;;2.17;2.10;;;;;;;-0.18;91.84;101424.09;6005376;29;20285;-75
2020/12/26 04:02:36;;;;;;;2.23;2.13;;;;;;;-0.19;93.75;101429.59;6004448;29;20255;-79
2020/12/26 04:05:40;;;;;;;2.10;2.00;;;;;;;-0.22;93.27;101425.38;6004905;29;20280;-78
2020/12/26 04:08:43;;;;;;;2.00;2.00;;;;;;;-0.16;93.22;101438.25;6005389;29;20212;-77
2020/12/26 04:11:47;;;;;;;1.93;1.93;;;;;;;-0.12;93.61;101439.66;6003873;29;20731;-77
2020/12/26 04:14:50;;;;;;;1.90;1.90;;;;;;;-0.07;93.32;101441.94;6012245;29;20304;-77
2020/12/26 04:17:53;;;;;;;2.30;2.10;;;;;;;-0.12;93.23;101454.91;6020825;29;20200;-77
2020/12/26 04:20:56;;;;;;;1.83;1.83;;;;;;;-0.19;92.94;101427.78;6009110;29;20621;-77
2020/12/26 04:23:59;;;;;;;1.80;1.80;;;;;;;-0.35;93.89;101424.72;6005251;29;20209;-76
2020/12/26 04:27:04;;;;;;;2.33;2.20;;;;;;;-0.22;93.42;101444.13;6010236;29;20297;-76
2020/12/26 04:30:11;;;;;;;2.30;1.90;;;;;;;-0.15;92.73;101456.03;6001707;29;20569;-78
2020/12/26 04:33:23;;;;;;;2.03;1.93;;;;;;;-0.07;91.99;101453.53;6004891;29;20289;-77
2020/12/26 04:36:26;;;;;;;1.90;1.80;;;;;;;-0.04;91.08;101455.94;6004896;29;20209;-76
2020/12/26 04:39:29;;;;;;;1.60;1.60;;;;;;;-0.14;91.14;101457.75;6005485;29;20198;-76
2020/12/26 04:42:34;;;;;;;1.83;1.83;;;;;;;-0.20;90.75;101447.53;6003340;29;20280;-75
2020/12/26 04:45:37;;;;;;;1.77;1.73;;;;;;;-0.11;90.89;101452.09;5999400;29;20223;-76
2020/12/26 04:48:49;;;;;;;1.90;1.80;;;;;;;0.12;90.19;101462.66;6004353;29;20225;-76
2020/12/26 04:51:58;;;;;;;2.17;2.00;;;;;;;0.12;89.29;101468.00;6001938;29;20229;-77
2020/12/26 04:55:03;;;;;;;1.97;1.87;;;;;;;0.02;89.50;101472.50;6003796;29;20570;-77
2020/12/26 04:58:13;;;;;;;2.17;2.17;;;;;;;0.05;90.09;101466.88;6002967;29;20260;-76
2020/12/26 05:01:17;;;;;;;1.90;1.80;;;;;;;0.12;88.92;101457.28;6002624;29;20216;-76
2020/12/26 05:04:21;;;;;;;1.90;1.90;;;;;;;0.07;89.77;101454.16;6000769;29;20212;-76
2020/12/26 05:07:24;;;;;;;2.30;2.20;;;;;;;-0.05;89.56;101454.25;6003500;29;20270;-77
2020/12/26 05:10:27;;;;;;;1.90;1.80;;;;;;;0.06;89.74;101453.31;6003852;29;20208;-78
2020/12/26 05:13:32;;;;;;;1.90;1.90;;;;;;;0.06;89.55;101447.06;6005196;29;20231;-77
2020/12/26 05:16:35;;;;;;;2.30;2.20;;;;;;;0.00;89.26;101438.59;6004898;29;20213;-77
2020/12/26 05:19:43;;;;;;;2.20;2.00;;;;;;;-0.08;89.98;101419.63;6008432;29;20207;-77
2020/12/26 05:23:08;;;;;;;2.00;2.00;;;;;;;0.00;88.93;101427.84;6015729;29;20282;-79
2020/12/26 05:26:12;;;;;;;2.13;2.03;;;;;;;0.07;89.25;101440.75;6013230;29;20210;-78
2020/12/26 05:29:20;;;;;;;1.90;1.90;;;;;;;-0.28;89.30;101431.25;6008688;29;20260;-77
2020/12/26 05:32:26;;;;;;;1.80;1.80;;;;;;;-0.03;89.19;101433.47;6006905;29;20197;-77
2020/12/26 05:35:35;;;;;;;1.83;1.83;;;;;;;-0.16;89.75;101432.88;6008707;29;20224;-78
2020/12/26 05:38:38;;;;;;;1.73;1.70;;;;;;;-0.05;88.78;101435.47;6008813;29;20246;-77
2020/12/26 05:41:44;;;;;;;1.80;1.80;;;;;;;-0.04;88.24;101431.81;6007650;29;20659;-76
2020/12/26 05:44:48;;;;;;;2.13;1.80;;;;;;;-0.05;89.26;101432.78;6005252;29;20220;-76
2020/12/26 05:48:06;;;;;;;1.80;1.80;;;;;;;0.03;88.42;101436.66;6008811;29;20367;-77
2020/12/26 05:51:09;;;;;;;1.50;1.50;;;;;;;0.09;87.83;101431.56;6007817;29;20614;-76
2020/12/26 05:54:16;;;;;;;2.17;2.07;;;;;;;-0.01;87.79;101415.44;6005413;29;20218;-77
2020/12/26 05:57:20;;;;;;;2.07;1.90;;;;;;;0.09;87.92;101422.66;6008680;29;20241;-77
2020/12/26 06:00:32;;;;;;;1.90;1.80;;;;;;;0.05;88.26;101418.56;6007031;29;20594;-77
2020/12/26 06:03:37;;;;;;;1.97;1.97;;;;;;;0.03;88.01;101417.88;6008991;29;20270;-77
2020/12/26 06:06:41;;;;;;;1.93;1.93;;;;;;;0.00;88.22;101435.91;6007353;29;20205;-77
2020/12/26 06:09:50;;;;;;;1.97;1.97;;;;;;;-0.04;88.44;101426.44;6007942;29;20318;-77
2020/12/26 06:12:53;;;;;;;1.63;1.63;;;;;;;-0.07;88.41;101431.22;5997934;29;20691;-78
2020/12/26 06:16:05;;;;;;;2.07;1.90;;;;;;;-0.12;89.21;101430.75;6007188;29;20225;-77
2020/12/26 06:19:13;;;;;;;1.90;1.80;;;;;;;0.17;88.00;101420.16;6008585;29;20257;-77
2020/12/26 06:22:16;;;;;;;2.03;1.97;;;;;;;0.26;87.59;101427.38;6008166;29;20201;-76
2020/12/26 06:25:22;;;;;;;2.50;2.30;;;;;;;0.02;87.73;101424.19;6005695;29;20579;-76
2020/12/26 06:28:27;;;;;;;2.10;2.10;;;;;;;0.18;88.16;101419.19;6009543;29;20202;-78
2020/12/26 06:31:32;;;;;;;2.03;1.93;;;;;;;0.22;87.73;101425.97;6018215;29;20206;-76
2020/12/26 06:34:37;;;;;;;2.17;2.17;;;;;;;-0.08;87.70;101430.34;6008484;29;20257;-76
2020/12/26 06:37:40;;;;;;;2.40;2.40;;;;;;;-0.19;87.89;101417.06;6007191;29;20214;-76
2020/12/26 06:40:51;;;;;;;2.30;2.23;;;;;;;-0.42;88.50;101410.16;6005451;29;20579;-77
2020/12/26 06:43:55;;;;;;;2.47;2.27;;;;;;;-0.37;89.30;101418.66;6004994;29;20232;-76
2020/12/26 06:46:59;;;;;;;2.17;2.07;;;;;;;-0.25;90.01;101428.31;6006019;29;20206;-76
2020/12/26 06:50:29;;;;;;;1.93;1.87;;;;;;;0.03;88.60;101425.91;6007431;29;20587;-76
2020/12/26 06:53:36;;;;;;;2.07;2.03;;;;;;;0.12;87.75;101420.56;5993834;29;20269;-77
2020/12/26 06:56:46;;;;;;;2.47;2.47;;;;;;;0.20;86.33;101417.22;6007671;29;20407;-77
2020/12/26 06:59:49;;;;;;;2.80;2.60;;;;;;;0.18;87.09;101413.81;6017873;29;20319;-77
2020/12/26 07:03:16;;;;;;;2.40;2.20;;;;;;;0.18;86.67;101416.50;6011247;29;20206;-76
2020/12/26 07:06:36;;;;;;;2.57;2.47;;;;;;;0.21;86.70;101394.75;6006743;29;20697;-76
2020/12/26 07:09:47;;;;;;;2.57;2.43;;;;;;;0.24;85.67;101402.53;6012345;29;20206;-76
2020/12/26 07:12:50;;;;;;;2.30;2.30;;;;;;;0.26;85.28;101392.50;6017597;29;20246;-78
2020/12/26 07:15:53;;;;;;;2.30;2.20;;;;;;;0.10;85.94;101384.13;6014784;29;20217;-77
2020/12/26 07:18:57;;;;;;;2.30;2.30;;;;;;;0.04;85.88;101406.97;6013120;29;20258;-78
2020/12/26 07:22:02;;;;;;;2.73;2.30;;;;;;;-0.10;86.96;101404.66;6011655;29;20225;-78
2020/12/26 07:25:09;;;;;;;3.10;2.30;;;;;;;-0.06;86.74;101412.31;6013151;29;20212;-77
2020/12/26 07:28:16;;;;;;;2.30;2.20;;;;;;;-0.01;86.57;101415.44;6013991;29;20225;-76
2020/12/26 07:31:18;;;;;;;2.23;2.13;;;;;;;0.13;87.33;101410.69;6021237;29;20527;-78
2020/12/26 07:34:36;;;;;;;2.57;2.37;;;;;;;-0.15;86.22;101413.09;6009801;29;20634;-78
2020/12/26 07:37:41;;;;;;;4.27;3.40;;;;;;;-0.22;86.84;101411.97;6016061;29;20190;-77
2020/12/26 07:40:45;;;;;;;2.83;2.63;;;;;;;-0.04;87.05;101421.06;5999395;29;20385;-77
2020/12/26 07:43:50;;;;;;;3.80;3.50;;;;;;;-0.02;86.65;101429.84;6004949;29;20643;-77
2020/12/26 07:46:55;;;;;;;6.53;5.27;;;;;;;-0.43;87.68;101418.31;6007135;29;20198;-77
2020/12/26 07:49:59;;;;;;;4.33;4.03;;;;;;;-0.40;87.87;101421.59;6005763;29;20213;-78
2020/12/26 07:53:06;;;;;;;3.57;3.30;;;;;;;-0.33;87.74;101430.81;6006473;29;20210;-76
2020/12/26 07:56:26;;;;;;;3.03;2.93;;;;;;;-0.20;87.34;101431.44;6004288;29;20672;-77
2020/12/26 07:59:29;;;;;;;3.03;2.77;;;;;;;-0.06;87.79;101433.78;5989419;29;20297;-78
2020/12/26 08:02:32;;;;;;;2.63;2.43;;;;;;;0.02;86.42;101419.69;6005742;29;20248;-77
2020/12/26 08:05:38;;;;;;;2.37;2.37;;;;;;;0.03;86.21;101442.00;5996742;29;20318;-76
2020/12/26 08:08:42;;;;;;;2.90;2.73;;;;;;;0.12;86.33;101436.69;6001777;29;20583;-76
2020/12/26 08:11:46;;;;;;;2.50;2.30;;;;;;;-0.49;85.77;101327.72;5999716;29;20561;-77
2020/12/26 08:14:56;;;;;;;3.00;2.90;;;;;;;0.04;86.41;101438.31;6002499;29;20718;-76
2020/12/26 08:18:00;;;;;;;3.03;2.93;;;;;;;0.03;86.47;101432.09;6004187;29;20195;-76
2020/12/26 08:21:20;;;;;;;2.77;2.67;;;;;;;-0.03;85.87;101433.47;6001725;29;20689;-77
2020/12/26 08:24:23;;;;;;;2.70;2.60;;;;;;;-0.11;86.30;101441.38;6003459;29;20574;-77
2020/12/26 08:27:28;;;;;;;2.03;2.03;;;;;;;-0.17;86.69;101435.69;6002862;29;20560;-77
2020/12/26 08:30:35;;;;;;;1.80;1.80;;;;;;;-0.58;86.57;101420.50;5998565;29;20205;-77
2020/12/26 08:33:40;;;;;;;2.73;2.27;;;;;;;-0.43;87.09;101426.34;6004437;29;20280;-77
2020/12/26 08:36:49;;;;;;;2.07;2.07;;;;;;;-0.44;86.91;101422.84;6003036;29;20635;-77
2020/12/26 08:39:57;;;;;;;3.17;2.13;;;;;;;-0.45;87.48;101421.16;6006221;29;20198;-78
2020/12/26 08:43:03;;;;;;;2.37;2.27;;;;;;;-0.26;86.94;101425.78;6025325;29;20712;-78
2020/12/26 08:46:12;;;;;;;2.50;2.03;;;;;;;-0.17;87.30;101425.81;5995918;29;20211;-76
2020/12/26 08:49:16;;;;;;;2.50;2.33;;;;;;;-0.25;87.38;101431.00;5991615;29;20206;-76
2020/12/26 08:52:23;;;;;;;2.53;2.30;;;;;;;-0.19;87.50;101443.88;5997600;29;20246;-75
2020/12/26 08:55:26;;;;;;;2.03;2.03;;;;;;;-0.16;87.45;101438.25;5998766;29;20257;-75
2020/12/26 08:58:32;;;;;;;2.40;2.30;;;;;;;-0.17;88.54;101431.19;5997464;29;20210;-75
2020/12/26 09:01:36;;;;;;;2.87;2.10;;;;;;;0.05;87.56;101429.31;6008754;29;20300;-77
2020/12/26 09:04:39;;;;;;;2.10;2.10;;;;;;;0.10;87.30;101427.06;6008334;29;20649;-78
2020/12/26 09:07:43;;;;;;;2.30;2.30;;;;;;;0.11;87.59;101412.63;6005227;29;20205;-76
2020/12/26 09:10:58;;;;;;;2.03;2.00;;;;;;;0.24;86.96;101429.34;6009286;29;20201;-77
2020/12/26 09:14:14;;;;;;;2.00;1.90;;;;;;;0.06;87.25;101430.97;6019905;29;20253;-76
2020/12/26 09:17:22;;;;;;;1.77;1.77;;;;;;;-0.08;85.89;101419.63;6016055;29;20206;-78
2020/12/26 09:20:27;;;;;;;1.53;1.53;;;;;;;-0.41;86.16;101433.28;6012242;29;20213;-76
2020/12/26 09:23:36;;;;;;;1.50;1.50;;;;;;;-0.29;86.66;101437.63;6011357;29;20549;-75
2020/12/26 09:26:39;;;;;;;1.70;1.70;;;;;;;-0.18;87.32;101434.81;6009223;29;20205;-75
2020/12/26 09:29:42;;;;;;;1.80;1.80;;;;;;;-0.27;87.16;101430.28;6008531;29;20205;-79
2020/12/26 09:32:54;;;;;;;1.90;1.90;;;;;;;-0.44;88.03;101417.50;6011435;29;20541;-79
2020/12/26 09:36:03;;;;;;;1.67;1.60;;;;;;;-0.18;87.51;101408.00;6011130;29;20708;-76
2020/12/26 09:39:09;;;;;;;2.00;2.00;;;;;;;0.17;85.27;101406.75;6019721;29;20324;-76
2020/12/26 09:42:12;;;;;;;1.90;1.90;;;;;;;0.24;85.08;101407.88;6007005;29;20535;-75
2020/12/26 09:45:17;;;;;;;1.90;1.90;;;;;;;0.18;84.97;101414.66;6015334;29;20217;-77
2020/12/26 09:48:24;;;;;;;1.90;1.80;;;;;;;0.25;85.92;101404.22;6042020;29;20182;-76
2020/12/26 09:51:27;;;;;;;2.07;2.07;;;;;;;0.20;86.10;101406.47;6023799;29;20221;-76
2020/12/26 09:54:31;;;;;;;2.00;2.00;;;;;;;0.21;85.83;101408.16;6001544;29;20206;-77
2020/12/26 09:57:34;;;;;;;2.43;2.30;;;;;;;0.20;85.95;101411.84;6007524;29;20583;-77
2020/12/26 10:00:38;;;;;;;2.50;2.30;;;;;;;0.36;85.52;101407.63;6007221;29;20284;-79
2020/12/26 10:03:48;;;;;;;2.50;2.40;;;;;;;0.37;85.83;101397.75;6009111;29;20259;-77
2020/12/26 10:06:51;;;;;;;2.07;2.07;;;;;;;0.46;85.14;101410.38;6007915;29;20280;-78
2020/12/26 10:09:55;;;;;;;2.20;2.20;;;;;;;0.44;85.54;101404.25;6007464;29;20208;-77
2020/12/26 10:12:59;;;;;;;2.33;2.23;;;;;;;0.62;84.51;101402.59;6007598;29;20232;-77
2020/12/26 10:16:02;;;;;;;2.33;2.30;;;;;;;0.61;84.33;101400.91;5999286;29;20225;-77
2020/12/26 10:19:09;;;;;;;2.00;1.97;;;;;;;0.69;84.25;101393.03;6007777;29;20212;-75
2020/12/26 10:22:15;;;;;;;2.27;2.07;;;;;;;0.68;83.80;101368.97;6007531;29;20683;-76
2020/12/26 10:25:20;;;;;;;2.00;2.00;;;;;;;0.80;83.82;101383.94;6006320;29;20360;-78
2020/12/26 10:28:23;;;;;;;2.10;2.00;;;;;;;0.92;82.81;101378.31;6000929;29;20674;-78
2020/12/26 10:31:28;;;;;;;1.90;1.90;;;;;;;0.72;82.54;101339.00;6003527;29;20214;-78
2020/12/26 10:34:31;;;;;;;2.17;2.07;;;;;;;0.80;82.81;101371.38;6005572;29;20650;-78
2020/12/26 10:37:34;;;;;;;2.00;2.00;;;;;;;0.74;83.69;101369.28;6008393;29;20244;-77
2020/12/26 10:40:39;;;;;;;2.10;2.10;;;;;;;0.43;85.36;101368.53;6005465;29;20203;-78
2020/12/26 10:43:42;;;;;;;2.20;2.20;;;;;;;0.56;85.21;101365.59;6009443;29;20199;-77
2020/12/26 10:46:46;;;;;;;3.63;1.97;;;;;;;0.29;85.66;101346.59;6006748;29;20218;-78
2020/12/26 10:49:49;;;;;;;2.17;2.17;;;;;;;0.27;86.68;101378.09;6011967;29;20210;-77
2020/12/26 10:52:52;;;;;;;2.00;1.90;;;;;;;0.57;85.43;101362.75;6010718;29;20190;-79
2020/12/26 10:55:57;;;;;;;1.60;1.60;;;;;;;0.76;84.01;101355.69;6020270;29;20242;-78
2020/12/26 10:59:03;;;;;;;1.87;1.77;;;;;;;0.63;84.05;101346.09;6015043;29;20197;-79
2020/12/26 11:02:08;;;;;;;1.93;1.93;;;;;;;0.61;83.76;101340.00;6013818;29;20216;-79
2020/12/26 11:05:12;;;;;;;1.80;1.70;;;;;;;0.63;83.88;101339.84;6013603;29;20645;-78
2020/12/26 11:08:15;;;;;;;3.20;1.80;;;;;;;0.55;84.78;101337.03;6003608;29;20330;-79
2020/12/26 11:11:19;;;;;;;1.70;1.70;;;;;;;0.66;84.49;101344.94;6000070;29;20531;-78
2020/12/26 11:14:22;;;;;;;2.00;2.00;;;;;;;0.78;83.91;101333.06;6005290;29;20677;-77
2020/12/26 11:17:26;;;;;;;1.90;1.90;;;;;;;0.85;82.81;101323.44;6001869;29;20224;-79
2020/12/26 11:20:30;;;;;;;2.00;2.00;;;;;;;0.59;83.22;101320.47;6005424;29;20198;-78
2020/12/26 11:23:33;;;;;;;2.20;2.10;;;;;;;0.74;83.04;101320.94;6007261;29;20206;-79
2020/12/26 11:26:37;;;;;;;1.90;1.90;;;;;;;0.71;83.64;101315.84;6008761;29;20712;-77
2020/12/26 11:29:41;;;;;;;2.07;2.00;;;;;;;0.70;83.93;101303.38;6016008;29;20210;-75
2020/12/26 11:32:44;;;;;;;2.43;2.33;;;;;;;0.56;84.97;101306.50;6008196;29;20206;-77
2020/12/26 11:35:47;;;;;;;2.50;2.30;;;;;;;0.62;84.92;101300.56;6004172;29;20219;-78
2020/12/26 11:38:51;;;;;;;2.17;2.17;;;;;;;0.30;85.66;101310.72;6006236;29;20201;-78
2020/12/26 11:41:55;;;;;;;2.50;2.50;;;;;;;0.42;86.02;101314.97;6002474;29;20221;-78
2020/12/26 11:44:59;;;;;;;3.80;2.50;;;;;;;0.50;85.33;101307.06;6010745;29;20210;-77
2020/12/26 11:48:03;;;;;;;2.43;2.43;;;;;;;0.57;85.46;101302.81;6007454;29;20206;-77
2020/12/26 11:51:09;;;;;;;2.83;2.73;;;;;;;0.56;86.11;101290.41;6006236;29;20322;-78
2020/12/26 11:54:12;;;;;;;2.50;2.47;;;;;;;0.70;85.35;101287.28;6000189;29;20309;-77
2020/12/26 11:57:25;;;;;;;2.93;2.73;;;;;;;0.80;84.54;101290.78;5993643;29;20236;-78
2020/12/26 12:00:28;;;;;;;2.60;2.50;;;;;;;0.66;84.96;101285.88;6022221;29;20221;-75
2020/12/26 12:03:38;;;;;;;2.70;2.70;;;;;;;0.36;84.75;101277.97;5998628;29;20289;-79
2020/12/26 12:06:42;;;;;;;2.57;2.50;;;;;;;0.57;85.74;101284.88;5996579;29;20358;-79
2020/12/26 12:09:45;;;;;;;2.70;2.60;;;;;;;0.08;86.52;101241.22;6005483;29;20342;-78
2020/12/26 12:12:49;;;;;;;2.80;2.70;;;;;;;0.11;86.63;101294.59;6007320;29;20210;-77
2020/12/26 12:15:53;;;;;;;2.30;2.20;;;;;;;0.48;84.95;101287.56;5998713;29;20215;-79
2020/12/26 12:18:57;;;;;;;2.37;2.37;;;;;;;0.56;83.88;101274.28;6005291;29;20219;-77
2020/12/26 12:22:00;;;;;;;3.03;2.93;;;;;;;0.64;84.27;101274.44;5997367;29;20733;-76
2020/12/26 12:25:04;;;;;;;2.87;2.77;;;;;;;0.66;83.40;101266.22;6003996;29;20213;-77
2020/12/26 12:28:11;;;;;;;2.40;2.40;;;;;;;0.50;83.55;101270.34;6000817;29;20659;-79
2020/12/26 12:31:15;;;;;;;2.40;2.40;;;;;;;0.19;84.59;101236.56;6001444;29;20712;-77
2020/12/26 12:34:19;;;;;;;2.53;2.43;;;;;;;0.36;84.16;101245.75;5997288;29;20210;-77
2020/12/26 12:37:22;;;;;;;2.70;2.60;;;;;;;0.16;84.91;101252.09;6002276;29;20676;-80
2020/12/26 12:40:26;;;;;;;2.67;2.57;;;;;;;0.22;85.27;101238.13;6010377;29;20213;-80
2020/12/26 12:43:31;;;;;;;2.53;2.47;;;;;;;0.31;84.52;101237.28;5992890;29;20237;-80
2020/12/26 12:46:34;;;;;;;3.17;2.93;;;;;;;0.09;84.92;101221.44;6005809;29;20666;-79
2020/12/26 12:49:37;;;;;;;2.90;2.70;;;;;;;0.26;84.70;101223.41;6023687;29;20211;-80
2020/12/26 12:52:41;;;;;;;3.23;3.13;;;;;;;0.47;84.21;101232.16;6009667;29;20244;-81
2020/12/26 12:55:44;;;;;;;3.67;3.53;;;;;;;0.27;85.31;101227.81;6001695;29;20259;-79
2020/12/26 12:58:48;;;;;;;3.97;3.67;;;;;;;0.44;84.44;101237.81;6000604;29;20210;-77
2020/12/26 13:01:51;;;;;;;3.53;3.23;;;;;;;0.52;84.01;101230.75;6004328;29;20292;-77
2020/12/26 13:04:56;;;;;;;3.73;3.53;;;;;;;0.49;84.22;101230.19;6010665;29;20268;-76
2020/12/26 13:08:03;;;;;;;3.70;2.83;;;;;;;0.81;82.13;101225.34;6015237;29;20205;-81
2020/12/26 13:11:07;;;;;;;3.63;3.37;;;;;;;0.56;83.04;101220.59;6003537;29;20202;-77
2020/12/26 13:14:14;;;;;;;3.73;3.53;;;;;;;0.71;82.28;101219.16;6008483;29;20202;-78
2020/12/26 13:17:18;;;;;;;4.00;3.80;;;;;;;0.45;83.37;101210.00;6005018;29;20219;-78
2020/12/26 13:20:24;;;;;;;4.27;4.07;;;;;;;0.20;84.15;101214.13;6002514;29;20200;-77
2020/12/26 13:23:27;;;;;;;5.20;4.70;;;;;;;0.45;83.76;101207.31;5988646;29;20412;-77
2020/12/26 13:26:31;;;;;;;7.37;5.47;;;;;;;0.50;82.61;101199.69;6004424;29;20205;-79
2020/12/26 13:29:35;;;;;;;7.17;5.90;;;;;;;0.40;83.31;101198.84;6005475;29;20268;-78
2020/12/26 13:32:39;;;;;;;6.47;5.93;;;;;;;0.15;84.54;101194.91;6004357;29;20235;-76
2020/12/26 13:35:42;;;;;;;8.27;5.67;;;;;;;0.27;84.62;101195.59;6007746;29;20335;-78
2020/12/26 13:38:45;;;;;;;8.10;5.53;;;;;;;0.36;84.44;101190.22;6015584;29;20409;-77
2020/12/26 13:41:51;;;;;;;6.40;5.43;;;;;;;0.51;83.70;101185.28;6022844;29;20288;-77
2020/12/26 13:44:55;;;;;;;10.70;6.63;;;;;;;0.20;84.83;101197.16;6013634;29;20207;-77
2020/12/26 13:47:58;;;;;;;7.60;6.20;;;;;;;0.24;85.19;101187.84;6009634;29;20421;-77
2020/12/26 13:51:08;;;;;;;10.03;7.20;;;;;;;0.10;85.83;101190.94;6006651;29;20763;-77
2020/12/26 13:54:12;;;;;;;18.60;10.47;;;;;;;0.07;85.45;101167.09;5998862;29;20211;-77
2020/12/26 13:57:17;;;;;;;31.93;14.50;;;;;;;-0.05;86.36;101187.81;6011007;29;20236;-77
2020/12/26 14:00:21;;;;;;;32.63;16.70;;;;;;;-0.16;86.12;101191.50;6014374;29;20203;-77
2020/12/26 14:03:36;;;;;;;40.13;17.43;;;;;;;-0.17;87.12;101189.81;6012100;29;20223;-77
2020/12/26 14:06:40;;;;;;;38.17;17.13;;;;;;;0.21;85.32;101178.22;5996996;29;20222;-78
2020/12/26 14:09:43;;;;;;;36.90;16.10;;;;;;;0.37;83.89;101157.03;6002574;29;20239;-78
2020/12/26 14:12:46;;;;;;;31.23;14.50;;;;;;;0.42;83.51;101175.38;6022553;29;20232;-80
2020/12/26 14:15:50;;;;;;;36.30;15.20;;;;;;;0.21;84.35;101166.63;6037164;29;20206;-79
2020/12/26 14:18:55;;;;;;;30.93;12.97;;;;;;;0.14;83.42;101127.97;6010901;29;20212;-80
2020/12/26 14:21:58;;;;;;;26.17;12.37;;;;;;;0.23;83.83;101141.34;6016903;29;20208;-79
2020/12/26 14:25:02;;;;;;;18.07;10.13;;;;;;;0.03;85.50;101146.91;5982221;29;20213;-77
2020/12/26 14:28:07;;;;;;;16.17;9.27;;;;;;;0.14;83.95;101117.22;6002832;29;20209;-79